KFKN/FKN METAR and TAF weather

Enter ICAO airport designator
Station Type Date Time Source
KFKN METAR 2020/07/11 18:15 UTC NOAA

KFKN 111815Z AUTO 26011G17KT 10SM SCT047 SCT055 32/21 A2977 RMK AO2 T03180206


Station Type Date Time Source
KFKN Decoded METAR 2020/07/11 18:15 UTC NOAA

Franklin / J B Rose, VA, United States (KFKN) 36-42N 076-54W
Jul 11, 2020 - 02:15 PM EDT / 2020.07.11 1815 UTC
Wind: from the W (260 degrees) at 13 MPH (11 KT) gusting to 20 MPH (17 KT):0
Visibility: 10 mile(s):0
Sky conditions: partly cloudy
Temperature: 89.2 F (31.8 C)
Dew Point: 69.1 F (20.6 C)
Relative Humidity: 51%
Pressure (altimeter): 29.77 in. Hg (1008 hPa)
ob: KFKN 111815Z AUTO 26011G17KT 10SM SCT047 SCT055 32/21 A2977 RMK AO2 T03180206
cycle: 18

Station Type Date Time Source
KFKN TAF UTC NOAA

Error!

Example: see airport list